sensor_id;sensor_type;location;lat;lon;timestamp;pressure;altitude;pressure_sealevel;temperature;humidity
29909;BME280;36247;51.952;6.146;2023-03-20T00:00:32;101831.84;;;8.83;100.00
29909;BME280;36247;51.952;6.146;2023-03-20T00:02:58;101836.88;;;8.75;100.00
29909;BME280;36247;51.952;6.146;2023-03-20T00:05:25;101821.56;;;8.67;100.00
29909;BME280;36247;51.952;6.146;2023-03-20T00:07:53;101803.78;;;8.87;100.00
29909;BME280;36247;51.952;6.146;2023-03-20T00:10:20;101810.59;;;8.80;100.00
29909;BME280;36247;51.952;6.146;2023-03-20T00:12:47;101808.34;;;8.91;100.00
29909;BME280;36247;51.952;6.146;2023-03-20T00:15:23;101816.59;;;9.00;100.00
29909;BME280;36247;51.952;6.146;2023-03-20T00:17:50;101806.78;;;8.96;100.00
29909;BME280;36247;51.952;6.146;2023-03-20T00:20:16;101807.50;;;8.92;100.00
29909;BME280;36247;51.952;6.146;2023-03-20T00:22:42;101803.16;;;8.94;100.00
29909;BME280;36247;51.952;6.146;2023-03-20T00:25:15;101810.88;;;8.88;100.00
29909;BME280;36247;51.952;6.146;2023-03-20T00:27:42;101809.56;;;8.75;100.00
29909;BME280;36247;51.952;6.146;2023-03-20T00:32:43;101814.47;;;8.65;100.00
29909;BME280;36247;51.952;6.146;2023-03-20T00:35:24;101825.34;;;8.73;100.00
29909;BME280;36247;51.952;6.146;2023-03-20T00:37:51;101811.22;;;8.73;100.00
29909;BME280;36247;51.952;6.146;2023-03-20T00:40:17;101808.28;;;8.65;100.00
29909;BME280;36247;51.952;6.146;2023-03-20T00:42:46;101806.75;;;8.72;100.00
29909;BME280;36247;51.952;6.146;2023-03-20T00:45:17;101805.88;;;8.71;100.00
29909;BME280;36247;51.952;6.146;2023-03-20T00:47:44;101806.03;;;8.76;100.00
29909;BME280;36247;51.952;6.146;2023-03-20T00:50:25;101808.25;;;8.63;100.00
29909;BME280;36247;51.952;6.146;2023-03-20T00:52:53;101804.72;;;8.63;100.00
29909;BME280;36247;51.952;6.146;2023-03-20T00:55:21;101811.72;;;8.62;100.00
29909;BME280;36247;51.952;6.146;2023-03-20T00:57:52;101802.06;;;8.63;100.00
29909;BME280;36247;51.952;6.146;2023-03-20T01:00:24;101808.13;;;8.60;100.00
29909;BME280;36247;51.952;6.146;2023-03-20T01:02:52;101802.47;;;8.74;100.00
29909;BME280;36247;51.952;6.146;2023-03-20T01:05:19;101797.34;;;8.78;100.00
29909;BME280;36247;51.952;6.146;2023-03-20T01:07:45;101788.13;;;8.91;100.00
29909;BME280;36247;51.952;6.146;2023-03-20T01:10:11;101786.00;;;8.81;100.00
29909;BME280;36247;51.952;6.146;2023-03-20T01:12:41;101778.22;;;8.86;100.00
29909;BME280;36247;51.952;6.146;2023-03-20T01:15:20;101782.31;;;8.77;100.00
29909;BME280;36247;51.952;6.146;2023-03-20T01:17:47;101788.41;;;8.75;100.00
29909;BME280;36247;51.952;6.146;2023-03-20T01:20:21;101804.88;;;8.68;100.00
29909;BME280;36247;51.952;6.146;2023-03-20T01:22:46;101806.66;;;8.69;100.00
29909;BME280;36247;51.952;6.146;2023-03-20T01:25:12;101817.81;;;8.84;100.00
29909;BME280;36247;51.952;6.146;2023-03-20T01:27:38;101827.13;;;8.74;100.00
29909;BME280;36247;51.952;6.146;2023-03-20T01:30:31;101828.66;;;8.68;100.00
29909;BME280;36247;51.952;6.146;2023-03-20T01:32:57;101838.00;;;8.59;100.00
29909;BME280;36247;51.952;6.146;2023-03-20T01:35:25;101838.88;;;8.58;100.00
29909;BME280;36247;51.952;6.146;2023-03-20T01:37:53;101841.69;;;8.63;100.00
29909;BME280;36247;51.952;6.146;2023-03-20T01:40:30;101838.00;;;8.59;100.00
29909;BME280;36247;51.952;6.146;2023-03-20T01:43:00;101827.00;;;8.71;100.00
29909;BME280;36247;51.952;6.146;2023-03-20T01:45:33;101827.91;;;8.72;100.00
29909;BME280;36247;51.952;6.146;2023-03-20T01:48:10;101834.66;;;8.63;100.00
29909;BME280;36247;51.952;6.146;2023-03-20T01:50:38;101835.59;;;8.65;100.00
29909;BME280;36247;51.952;6.146;2023-03-20T01:53:18;101842.63;;;8.65;100.00
29909;BME280;36247;51.952;6.146;2023-03-20T01:55:53;101851.16;;;8.58;100.00
29909;BME280;36247;51.952;6.146;2023-03-20T01:58:34;101851.94;;;8.55;100.00
29909;BME280;36247;51.952;6.146;2023-03-20T02:01:03;101844.06;;;8.57;100.00
29909;BME280;36247;51.952;6.146;2023-03-20T02:03:31;101837.72;;;8.52;100.00
29909;BME280;36247;51.952;6.146;2023-03-20T02:06:21;101832.28;;;8.47;100.00
29909;BME280;36247;51.952;6.146;2023-03-20T02:08:59;101828.06;;;8.52;100.00
29909;BME280;36247;51.952;6.146;2023-03-20T02:11:26;101831.91;;;8.60;100.00
29909;BME280;36247;51.952;6.146;2023-03-20T02:13:54;101822.22;;;8.61;100.00
29909;BME280;36247;51.952;6.146;2023-03-20T02:16:23;101829.56;;;8.45;100.00
29909;BME280;36247;51.952;6.146;2023-03-20T02:19:29;101846.94;;;8.40;100.00
29909;BME280;36247;51.952;6.146;2023-03-20T02:22:37;101831.63;;;8.53;100.00
29909;BME280;36247;51.952;6.146;2023-03-20T02:30:47;101809.41;;;8.47;100.00
29909;BME280;36247;51.952;6.146;2023-03-20T02:36:18;101837.88;;;8.34;100.00
29909;BME280;36247;51.952;6.146;2023-03-20T02:39:12;101828.81;;;8.27;100.00
29909;BME280;36247;51.952;6.146;2023-03-20T02:41:43;101815.06;;;8.36;100.00
29909;BME280;36247;51.952;6.146;2023-03-20T02:47:18;101804.69;;;8.40;100.00
29909;BME280;36247;51.952;6.146;2023-03-20T02:52:45;101793.50;;;8.46;100.00
29909;BME280;36247;51.952;6.146;2023-03-20T02:55:18;101800.47;;;8.44;100.00
29909;BME280;36247;51.952;6.146;2023-03-20T02:57:58;101805.75;;;8.21;100.00
29909;BME280;36247;51.952;6.146;2023-03-20T03:00:31;101806.38;;;8.16;100.00
29909;BME280;36247;51.952;6.146;2023-03-20T03:03:14;101799.72;;;8.25;100.00
29909;BME280;36247;51.952;6.146;2023-03-20T03:05:54;101806.16;;;8.32;100.00
29909;BME280;36247;51.952;6.146;2023-03-20T03:08:24;101810.16;;;8.22;100.00
29909;BME280;36247;51.952;6.146;2023-03-20T03:11:13;101817.25;;;8.23;100.00
29909;BME280;36247;51.952;6.146;2023-03-20T03:13:44;101813.41;;;8.15;100.00
29909;BME280;36247;51.952;6.146;2023-03-20T03:16:25;101809.84;;;8.15;100.00
29909;BME280;36247;51.952;6.146;2023-03-20T03:19:01;101809.84;;;8.15;100.00
29909;BME280;36247;51.952;6.146;2023-03-20T03:21:28;101802.59;;;8.09;100.00
29909;BME280;36247;51.952;6.146;2023-03-20T03:23:54;101811.38;;;8.08;100.00
29909;BME280;36247;51.952;6.146;2023-03-20T03:26:29;101809.03;;;8.16;100.00
29909;BME280;36247;51.952;6.146;2023-03-20T03:28:59;101795.47;;;8.06;100.00
29909;BME280;36247;51.952;6.146;2023-03-20T03:31:27;101788.50;;;8.08;100.00
29909;BME280;36247;51.952;6.146;2023-03-20T03:33:56;101792.97;;;8.09;100.00
29909;BME280;36247;51.952;6.146;2023-03-20T03:36:47;101783.53;;;8.16;100.00
29909;BME280;36247;51.952;6.146;2023-03-20T03:42:15;101772.25;;;8.20;100.00
29909;BME280;36247;51.952;6.146;2023-03-20T03:45:04;101754.13;;;8.29;100.00
29909;BME280;36247;51.952;6.146;2023-03-20T03:47:37;101744.47;;;8.30;100.00
29909;BME280;36247;51.952;6.146;2023-03-20T03:50:11;101736.88;;;8.15;100.00
29909;BME280;36247;51.952;6.146;2023-03-20T03:52:40;101739.53;;;8.15;100.00
29909;BME280;36247;51.952;6.146;2023-03-20T03:55:11;101733.31;;;8.15;100.00
29909;BME280;36247;51.952;6.146;2023-03-20T03:58:02;101733.16;;;8.10;100.00
29909;BME280;36247;51.952;6.146;2023-03-20T04:00:30;101736.56;;;8.07;100.00
29909;BME280;36247;51.952;6.146;2023-03-20T04:02:58;101755.50;;;7.97;100.00
29909;BME280;36247;51.952;6.146;2023-03-20T04:05:27;101745.88;;;7.98;100.00
29909;BME280;36247;51.952;6.146;2023-03-20T04:07:57;101743.94;;;7.93;100.00
29909;BME280;36247;51.952;6.146;2023-03-20T04:10:24;101740.59;;;7.98;100.00
29909;BME280;36247;51.952;6.146;2023-03-20T04:12:49;101743.63;;;8.08;100.00
29909;BME280;36247;51.952;6.146;2023-03-20T04:15:16;101743.13;;;7.94;100.00
29909;BME280;36247;51.952;6.146;2023-03-20T04:17:42;101747.28;;;7.89;100.00
29909;BME280;36247;51.952;6.146;2023-03-20T04:20:10;101754.31;;;7.89;100.00
29909;BME280;36247;51.952;6.146;2023-03-20T04:22:36;101750.00;;;7.91;100.00
29909;BME280;36247;51.952;6.146;2023-03-20T04:25:06;101747.25;;;7.88;100.00
29909;BME280;36247;51.952;6.146;2023-03-20T04:27:32;101739.19;;;7.85;100.00
29909;BME280;36247;51.952;6.146;2023-03-20T04:29:58;101737.97;;;7.75;100.00
29909;BME280;36247;51.952;6.146;2023-03-20T04:32:42;101728.94;;;7.70;100.00
29909;BME280;36247;51.952;6.146;2023-03-20T04:35:37;101726.72;;;7.58;100.00
29909;BME280;36247;51.952;6.146;2023-03-20T04:38:09;101731.81;;;7.53;100.00
29909;BME280;36247;51.952;6.146;2023-03-20T04:40:35;101735.44;;;7.55;100.00
29909;BME280;36247;51.952;6.146;2023-03-20T04:43:01;101738.78;;;7.51;100.00
29909;BME280;36247;51.952;6.146;2023-03-20T04:45:27;101735.28;;;7.52;100.00
29909;BME280;36247;51.952;6.146;2023-03-20T04:47:52;101743.72;;;7.44;100.00
29909;BME280;36247;51.952;6.146;2023-03-20T04:50:20;101754.66;;;7.53;100.00
29909;BME280;36247;51.952;6.146;2023-03-20T04:52:45;101741.97;;;7.44;100.00
29909;BME280;36247;51.952;6.146;2023-03-20T04:55:12;101730.66;;;7.47;100.00
29909;BME280;36247;51.952;6.146;2023-03-20T04:57:38;101738.78;;;7.51;100.00
29909;BME280;36247;51.952;6.146;2023-03-20T05:00:04;101735.53;;;7.37;100.00
29909;BME280;36247;51.952;6.146;2023-03-20T05:02:30;101734.91;;;7.22;100.00
29909;BME280;36247;51.952;6.146;2023-03-20T05:04:55;101737.81;;;7.28;100.00
29909;BME280;36247;51.952;6.146;2023-03-20T05:07:21;101742.88;;;7.23;100.00
29909;BME280;36247;51.952;6.146;2023-03-20T05:09:52;101748.09;;;7.22;100.00
29909;BME280;36247;51.952;6.146;2023-03-20T05:12:17;101742.13;;;7.26;100.00
29909;BME280;36247;51.952;6.146;2023-03-20T05:15:15;101741.88;;;7.20;100.00
29909;BME280;36247;51.952;6.146;2023-03-20T05:17:59;101744.44;;;7.18;100.00
29909;BME280;36247;51.952;6.146;2023-03-20T05:20:44;101747.72;;;7.13;100.00
29909;BME280;36247;51.952;6.146;2023-03-20T05:23:36;101742.69;;;7.19;100.00
29909;BME280;36247;51.952;6.146;2023-03-20T05:26:18;101736.00;;;7.06;100.00
29909;BME280;36247;51.952;6.146;2023-03-20T05:29:02;101735.44;;;7.13;100.00
29909;BME280;36247;51.952;6.146;2023-03-20T05:31:46;101741.72;;;6.96;100.00
29909;BME280;36247;51.952;6.146;2023-03-20T05:34:32;101740.56;;;6.89;100.00
29909;BME280;36247;51.952;6.146;2023-03-20T05:37:11;101753.72;;;6.89;100.00
29909;BME280;36247;51.952;6.146;2023-03-20T05:39:39;101749.56;;;6.94;100.00
29909;BME280;36247;51.952;6.146;2023-03-20T05:42:24;101740.56;;;6.89;100.00
29909;BME280;36247;51.952;6.146;2023-03-20T05:45:18;101737.09;;;6.90;100.00
29909;BME280;36247;51.952;6.146;2023-03-20T05:48:04;101743.50;;;6.97;100.00
29909;BME280;36247;51.952;6.146;2023-03-20T05:50:39;101741.31;;;6.86;100.00
29909;BME280;36247;51.952;6.146;2023-03-20T05:53:15;101750.34;;;6.92;100.00
29909;BME280;36247;51.952;6.146;2023-03-20T05:55:59;101758.44;;;6.96;100.00
29909;BME280;36247;51.952;6.146;2023-03-20T05:58:40;101759.88;;;6.89;100.00
29909;BME280;36247;51.952;6.146;2023-03-20T06:01:25;101766.91;;;7.10;100.00
29909;BME280;36247;51.952;6.146;2023-03-20T06:04:06;101764.09;;;7.05;100.00
29909;BME280;36247;51.952;6.146;2023-03-20T06:06:56;101770.91;;;7.00;100.00
29909;BME280;36247;51.952;6.146;2023-03-20T06:09:22;101775.38;;;7.03;100.00
29909;BME280;36247;51.952;6.146;2023-03-20T06:11:48;101772.06;;;7.07;100.00
29909;BME280;36247;51.952;6.146;2023-03-20T06:14:16;101772.06;;;7.07;100.00
29909;BME280;36247;51.952;6.146;2023-03-20T06:16:45;101766.91;;;7.10;100.00
29909;BME280;36247;51.952;6.146;2023-03-20T06:19:12;101772.56;;;6.98;100.00
29909;BME280;36247;51.952;6.146;2023-03-20T06:21:38;101775.75;;;7.11;100.00
29909;BME280;36247;51.952;6.146;2023-03-20T06:24:08;101777.19;;;7.04;100.00
29909;BME280;36247;51.952;6.146;2023-03-20T06:26:33;101772.06;;;7.07;100.00
29909;BME280;36247;51.952;6.146;2023-03-20T06:29:04;101767.69;;;7.07;100.00
29909;BME280;36247;51.952;6.146;2023-03-20T06:31:31;101762.63;;;7.12;100.00
29909;BME280;36247;51.952;6.146;2023-03-20T06:33:59;101767.91;;;7.12;100.00
29909;BME280;36247;51.952;6.146;2023-03-20T06:36:25;101776.91;;;7.17;100.00
29909;BME280;36247;51.952;6.146;2023-03-20T06:38:56;101765.78;;;7.24;100.00
29909;BME280;36247;51.952;6.146;2023-03-20T06:41:22;101769.25;;;7.23;100.00
29909;BME280;36247;51.952;6.146;2023-03-20T06:43:48;101767.72;;;7.29;100.00
29909;BME280;36247;51.952;6.146;2023-03-20T06:46:15;101756.91;;;7.44;100.00
29909;BME280;36247;51.952;6.146;2023-03-20T06:48:41;101763.91;;;7.43;100.00
29909;BME280;36247;51.952;6.146;2023-03-20T06:51:06;101761.25;;;7.43;100.00
29909;BME280;36247;51.952;6.146;2023-03-20T06:53:37;101769.91;;;7.39;100.00
29909;BME280;36247;51.952;6.146;2023-03-20T06:56:07;101771.03;;;7.46;100.00
29909;BME280;36247;51.952;6.146;2023-03-20T06:58:33;101766.72;;;7.48;100.00
29909;BME280;36247;51.952;6.146;2023-03-20T07:00:58;101785.19;;;7.48;100.00
29909;BME280;36247;51.952;6.146;2023-03-20T07:03:24;101772.34;;;7.55;100.00
29909;BME280;36247;51.952;6.146;2023-03-20T07:05:51;101776.88;;;7.59;100.00
29909;BME280;36247;51.952;6.146;2023-03-20T07:08:18;101778.56;;;7.57;100.00
29909;BME280;36247;51.952;6.146;2023-03-20T07:10:43;101777.06;;;7.64;100.00
29909;BME280;36247;51.952;6.146;2023-03-20T07:13:11;101787.38;;;7.58;100.00
29909;BME280;36247;51.952;6.146;2023-03-20T07:15:38;101783.97;;;7.61;100.00
29909;BME280;36247;51.952;6.146;2023-03-20T07:18:06;101781.31;;;7.61;100.00
29909;BME280;36247;51.952;6.146;2023-03-20T07:20:31;101781.25;;;7.59;100.00
29909;BME280;36247;51.952;6.146;2023-03-20T07:22:57;101787.25;;;7.55;100.00
29909;BME280;36247;51.952;6.146;2023-03-20T07:25:26;101789.13;;;7.57;100.00
29909;BME280;36247;51.952;6.146;2023-03-20T07:27:52;101782.16;;;7.59;100.00
29909;BME280;36247;51.952;6.146;2023-03-20T07:30:21;101784.78;;;7.59;100.00
29909;BME280;36247;51.952;6.146;2023-03-20T07:32:47;101787.56;;;7.63;100.00
29909;BME280;36247;51.952;6.146;2023-03-20T07:35:14;101780.28;;;7.78;100.00
29909;BME280;36247;51.952;6.146;2023-03-20T07:37:41;101790.03;;;7.81;100.00
29909;BME280;36247;51.952;6.146;2023-03-20T07:40:08;101789.22;;;7.82;100.00
29909;BME280;36247;51.952;6.146;2023-03-20T07:42:49;101787.91;;;7.70;100.00
29909;BME280;36247;51.952;6.146;2023-03-20T07:45:35;101792.94;;;7.87;100.00
29909;BME280;36247;51.952;6.146;2023-03-20T07:48:00;101787.22;;;7.76;100.00
29909;BME280;36247;51.952;6.146;2023-03-20T07:50:26;101792.28;;;7.92;100.00
29909;BME280;36247;51.952;6.146;2023-03-20T07:52:51;101785.25;;;7.70;100.00
29909;BME280;36247;51.952;6.146;2023-03-20T07:55:19;101779.91;;;7.69;100.00
29909;BME280;36247;51.952;6.146;2023-03-20T07:57:47;101781.53;;;7.88;100.00
29909;BME280;36247;51.952;6.146;2023-03-20T08:00:15;101784.81;;;7.82;100.00
29909;BME280;36247;51.952;6.146;2023-03-20T08:02:41;101789.97;;;7.79;100.00
29909;BME280;36247;51.952;6.146;2023-03-20T08:05:07;101785.16;;;7.90;100.00
29909;BME280;36247;51.952;6.146;2023-03-20T08:07:34;101789.22;;;7.82;100.00
29909;BME280;36247;51.952;6.146;2023-03-20T08:10:00;101789.66;;;7.71;100.00
29909;BME280;36247;51.952;6.146;2023-03-20T08:12:25;101778.84;;;7.86;100.00
29909;BME280;36247;51.952;6.146;2023-03-20T08:14:51;101778.84;;;7.86;100.00
29909;BME280;36247;51.952;6.146;2023-03-20T08:17:17;101781.41;;;7.85;100.00
29909;BME280;36247;51.952;6.146;2023-03-20T08:19:42;101786.03;;;7.90;100.00
29909;BME280;36247;51.952;6.146;2023-03-20T08:22:08;101789.75;;;7.95;100.00
29909;BME280;36247;51.952;6.146;2023-03-20T08:24:33;101787.63;;;8.08;100.00
29909;BME280;36247;51.952;6.146;2023-03-20T08:26:58;101785.69;;;8.04;100.00
29909;BME280;36247;51.952;6.146;2023-03-20T08:29:24;101789.63;;;7.92;100.00
29909;BME280;36247;51.952;6.146;2023-03-20T08:31:50;101782.56;;;7.91;100.00
29909;BME280;36247;51.952;6.146;2023-03-20T08:34:15;101775.84;;;8.00;100.00
29909;BME280;36247;51.952;6.146;2023-03-20T08:36:41;101784.47;;;7.95;100.00
29909;BME280;36247;51.952;6.146;2023-03-20T08:39:06;101779.69;;;8.08;100.00
29909;BME280;36247;51.952;6.146;2023-03-20T08:41:33;101777.28;;;8.14;100.00
29909;BME280;36247;51.952;6.146;2023-03-20T08:43:59;101783.28;;;8.10;100.00
29909;BME280;36247;51.952;6.146;2023-03-20T08:46:25;101775.97;;;8.03;100.00
29909;BME280;36247;51.952;6.146;2023-03-20T08:48:51;101784.47;;;7.95;100.00
29909;BME280;36247;51.952;6.146;2023-03-20T08:51:16;101780.59;;;8.08;100.00
29909;BME280;36247;51.952;6.146;2023-03-20T08:53:42;101776.94;;;8.05;100.00
29909;BME280;36247;51.952;6.146;2023-03-20T08:56:08;101767.16;;;8.02;100.00
29909;BME280;36247;51.952;6.146;2023-03-20T08:58:34;101779.59;;;8.05;100.00
29909;BME280;36247;51.952;6.146;2023-03-20T09:01:07;101780.06;;;8.17;100.00
29909;BME280;36247;51.952;6.146;2023-03-20T09:03:33;101778.00;;;8.10;100.00
29909;BME280;36247;51.952;6.146;2023-03-20T09:05:59;101771.72;;;8.06;100.00
29909;BME280;36247;51.952;6.146;2023-03-20T09:08:25;101779.22;;;8.18;100.00
29909;BME280;36247;51.952;6.146;2023-03-20T09:10:50;101787.84;;;8.14;100.00
29909;BME280;36247;51.952;6.146;2023-03-20T09:13:16;101777.03;;;8.30;100.00
29909;BME280;36247;51.952;6.146;2023-03-20T09:15:41;101773.47;;;8.28;100.00
29909;BME280;36247;51.952;6.146;2023-03-20T09:18:07;101784.13;;;8.32;100.00
29909;BME280;36247;51.952;6.146;2023-03-20T09:20:33;101794.97;;;8.39;100.00
29909;BME280;36247;51.952;6.146;2023-03-20T09:22:59;101789.16;;;8.25;100.00
29909;BME280;36247;51.952;6.146;2023-03-20T09:25:24;101783.16;;;8.29;100.00
29909;BME280;36247;51.952;6.146;2023-03-20T09:27:52;101787.94;;;8.40;100.00
29909;BME280;36247;51.952;6.146;2023-03-20T09:30:20;101780.03;;;8.62;100.00
29909;BME280;36247;51.952;6.146;2023-03-20T09:32:48;101787.28;;;8.68;100.00
29909;BME280;36247;51.952;6.146;2023-03-20T09:35:14;101784.47;;;8.63;100.00
29909;BME280;36247;51.952;6.146;2023-03-20T09:37:39;101791.38;;;8.60;100.00
29909;BME280;36247;51.952;6.146;2023-03-20T09:40:06;101789.69;;;8.62;100.00
29909;BME280;36247;51.952;6.146;2023-03-20T09:43:12;101794.66;;;8.77;100.00
29909;BME280;36247;51.952;6.146;2023-03-20T09:45:55;101794.19;;;8.64;100.00
29909;BME280;36247;51.952;6.146;2023-03-20T09:51:14;101790.31;;;8.55;100.00
29909;BME280;36247;51.952;6.146;2023-03-20T09:53:47;101793.16;;;8.85;100.00
29909;BME280;36247;51.952;6.146;2023-03-20T09:56:18;101803.22;;;8.95;100.00
29909;BME280;36247;51.952;6.146;2023-03-20T09:58:51;101795.41;;;8.98;100.00
29909;BME280;36247;51.952;6.146;2023-03-20T10:01:19;101799.44;;;9.13;100.00
29909;BME280;36247;51.952;6.146;2023-03-20T10:03:56;101792.44;;;9.15;100.00
29909;BME280;36247;51.952;6.146;2023-03-20T10:06:23;101798.81;;;9.20;100.00
29909;BME280;36247;51.952;6.146;2023-03-20T10:08:50;101802.91;;;9.12;100.00
29909;BME280;36247;51.952;6.146;2023-03-20T10:12:19;101810.91;;;9.13;100.00
29909;BME280;36247;51.952;6.146;2023-03-20T10:14:17;101814.41;;;9.12;100.00
29909;BME280;36247;51.952;6.146;2023-03-20T10:17:03;101800.16;;;9.09;100.00
29909;BME280;36247;51.952;6.146;2023-03-20T10:19:35;101798.34;;;9.06;100.00
29909;BME280;36247;51.952;6.146;2023-03-20T10:24:41;101805.28;;;9.54;100.00
29909;BME280;36247;51.952;6.146;2023-03-20T10:29:57;101793.47;;;9.18;100.00
29909;BME280;36247;51.952;6.146;2023-03-20T10:32:42;101789.66;;;9.62;100.00
29909;BME280;36247;51.952;6.146;2023-03-20T10:35:18;101796.97;;;9.17;100.00
29909;BME280;36247;51.952;6.146;2023-03-20T10:40:25;101786.84;;;9.57;100.00
29909;BME280;36247;51.952;6.146;2023-03-20T10:42:53;101798.59;;;9.14;100.00
29909;BME280;36247;51.952;6.146;2023-03-20T10:45:43;101787.50;;;9.24;100.00
29909;BME280;36247;51.952;6.146;2023-03-20T10:48:18;101787.72;;;9.30;100.00
29909;BME280;36247;51.952;6.146;2023-03-20T10:50:56;101793.69;;;9.25;100.00
29909;BME280;36247;51.952;6.146;2023-03-20T10:53:36;101780.53;;;9.26;100.00
29909;BME280;36247;51.952;6.146;2023-03-20T10:56:08;101785.81;;;9.26;100.00
29909;BME280;36247;51.952;6.146;2023-03-20T10:58:41;101783.84;;;9.21;100.00
29909;BME280;36247;51.952;6.146;2023-03-20T11:01:08;101785.81;;;9.00;100.00
29909;BME280;36247;51.952;6.146;2023-03-20T11:03:34;101785.06;;;9.05;100.00
29909;BME280;36247;51.952;6.146;2023-03-20T11:08:46;101774.03;;;8.92;100.00
29909;BME280;36247;51.952;6.146;2023-03-20T11:11:12;101790.13;;;8.98;100.00
29909;BME280;36247;51.952;6.146;2023-03-20T11:13:41;101775.97;;;9.22;100.00
29909;BME280;36247;51.952;6.146;2023-03-20T11:18:44;101779.94;;;9.35;100.00
29909;BME280;36247;51.952;6.146;2023-03-20T11:21:18;101793.09;;;9.33;100.00
29909;BME280;36247;51.952;6.146;2023-03-20T11:23:44;101779.34;;;9.44;100.00
29909;BME280;36247;51.952;6.146;2023-03-20T11:26:13;101772.22;;;9.41;100.00
29909;BME280;36247;51.952;6.146;2023-03-20T11:28:55;101774.69;;;9.37;100.00
29909;BME280;36247;51.952;6.146;2023-03-20T11:31:38;101774.06;;;9.18;100.00
29909;BME280;36247;51.952;6.146;2023-03-20T11:36:37;101764.09;;;8.85;100.00
29909;BME280;36247;51.952;6.146;2023-03-20T11:39:21;101769.31;;;9.08;100.00
29909;BME280;36247;51.952;6.146;2023-03-20T11:41:50;101777.88;;;9.00;100.00
29909;BME280;36247;51.952;6.146;2023-03-20T11:44:32;101766.28;;;8.97;100.00
29909;BME280;36247;51.952;6.146;2023-03-20T11:47:00;101772.47;;;8.97;100.00
29909;BME280;36247;51.952;6.146;2023-03-20T11:49:31;101765.34;;;8.95;100.00
29909;BME280;36247;51.952;6.146;2023-03-20T11:52:08;101760.06;;;8.71;100.00
29909;BME280;36247;51.952;6.146;2023-03-20T11:54:36;101761.69;;;8.67;100.00
29909;BME280;36247;51.952;6.146;2023-03-20T11:57:03;101750.09;;;8.88;100.00
29909;BME280;36247;51.952;6.146;2023-03-20T11:59:31;101747.03;;;9.01;100.00
29909;BME280;36247;51.952;6.146;2023-03-20T12:01:59;101745.91;;;8.93;100.00
29909;BME280;36247;51.952;6.146;2023-03-20T12:04:34;101765.31;;;8.69;100.00
29909;BME280;36247;51.952;6.146;2023-03-20T12:07:14;101762.25;;;8.82;100.00
29909;BME280;36247;51.952;6.146;2023-03-20T12:09:47;101746.41;;;8.82;100.00
29909;BME280;36247;51.952;6.146;2023-03-20T12:20:23;101741.91;;;8.80;100.00
29909;BME280;36247;51.952;6.146;2023-03-20T12:23:11;101734.03;;;8.81;100.00
29909;BME280;36247;51.952;6.146;2023-03-20T12:25:50;101734.25;;;8.88;100.00
29909;BME280;36247;51.952;6.146;2023-03-20T12:29:04;101733.47;;;8.90;100.00
29909;BME280;36247;51.952;6.146;2023-03-20T12:31:42;101732.75;;;8.70;100.00
29909;BME280;36247;51.952;6.146;2023-03-20T12:36:43;101730.28;;;8.75;100.00
29909;BME280;36247;51.952;6.146;2023-03-20T12:39:13;101723.00;;;8.68;100.00
29909;BME280;36247;51.952;6.146;2023-03-20T12:44:55;101710.94;;;9.02;100.00
29909;BME280;36247;51.952;6.146;2023-03-20T12:50:23;101716.28;;;8.77;100.00
29909;BME280;36247;51.952;6.146;2023-03-20T13:01:21;101701.69;;;9.14;100.00
29909;BME280;36247;51.952;6.146;2023-03-20T13:10:11;101701.09;;;9.23;100.00
29909;BME280;36247;51.952;6.146;2023-03-20T13:15:23;101691.63;;;9.57;100.00
29909;BME280;36247;51.952;6.146;2023-03-20T13:20:33;101689.78;;;9.02;100.00
29909;BME280;36247;51.952;6.146;2023-03-20T13:23:09;101688.50;;;9.16;100.00
29909;BME280;36247;51.952;6.146;2023-03-20T13:39:09;101676.56;;;9.27;100.00
29909;BME280;36247;51.952;6.146;2023-03-20T13:41:38;101672.25;;;9.31;100.00
29909;BME280;36247;51.952;6.146;2023-03-20T13:44:05;101670.25;;;9.24;100.00
29909;BME280;36247;51.952;6.146;2023-03-20T13:46:41;101677.00;;;9.14;100.00
29909;BME280;36247;51.952;6.146;2023-03-20T13:49:25;101666.88;;;9.28;100.00
29909;BME280;36247;51.952;6.146;2023-03-20T13:54:44;101674.75;;;8.99;100.00
29909;BME280;36247;51.952;6.146;2023-03-20T13:59:56;101661.84;;;8.82;100.00
29909;BME280;36247;51.952;6.146;2023-03-20T14:02:38;101661.38;;;8.94;100.00
29909;BME280;36247;51.952;6.146;2023-03-20T14:05:14;101655.22;;;8.95;100.00
29909;BME280;36247;51.952;6.146;2023-03-20T14:07:42;101652.91;;;9.05;100.00
29909;BME280;36247;51.952;6.146;2023-03-20T14:13:01;101645.28;;;8.88;100.00
29909;BME280;36247;51.952;6.146;2023-03-20T14:15:33;101648.47;;;9.04;100.00
29909;BME280;36247;51.952;6.146;2023-03-20T14:18:14;101647.25;;;8.94;100.00
29909;BME280;36247;51.952;6.146;2023-03-20T14:20:41;101646.75;;;9.06;100.00
29909;BME280;36247;51.952;6.146;2023-03-20T14:23:18;101646.66;;;9.03;100.00
29909;BME280;36247;51.952;6.146;2023-03-20T14:25:46;101652.91;;;9.05;100.00
29909;BME280;36247;51.952;6.146;2023-03-20T14:30:43;101639.84;;;9.09;100.00
29909;BME280;36247;51.952;6.146;2023-03-20T14:35:48;101653.56;;;8.97;100.00
29909;BME280;36247;51.952;6.146;2023-03-20T14:38:17;101642.44;;;8.82;100.00
29909;BME280;36247;51.952;6.146;2023-03-20T14:40:56;101642.72;;;9.17;100.00
29909;BME280;36247;51.952;6.146;2023-03-20T14:46:14;101643.47;;;9.13;100.00
29909;BME280;36247;51.952;6.146;2023-03-20T14:48:49;101645.88;;;9.05;100.00
29909;BME280;36247;51.952;6.146;2023-03-20T14:51:36;101646.25;;;8.90;100.00
29909;BME280;36247;51.952;6.146;2023-03-20T14:56:50;101642.34;;;8.79;100.00
29909;BME280;36247;51.952;6.146;2023-03-20T14:59:20;101638.66;;;8.74;100.00
29909;BME280;36247;51.952;6.146;2023-03-20T15:02:00;101637.22;;;8.83;100.00